Time;durP1;ratioP1;P1;durP2;ratioP2;P2;SDS_P1;SDS_P2;PMS_P1;PMS_P2;Temp;Humidity;BMP_temperature;BMP_pressure;BME280_temperature;BME280_humidity;BME280_pressure;Samples;Min_cycle;Max_cycle;Signal;HPM_P1;HPM_P2
2023/01/18 00:01:47;;;;;;;;;;;;;;;15.48;49.64;99684.28;4964496;28;2593;-45
2023/01/18 00:04:12;;;;;;;;;;;;;;;15.44;48.49;99685.97;4960601;28;1910;-42
2023/01/18 00:06:38;;;;;;;;;;;;;;;15.34;48.23;99681.41;4960924;28;1070;-42
2023/01/18 00:09:03;;;;;;;;;;;;;;;16.41;48.64;99670.91;4961676;28;1114;-41
2023/01/18 00:11:28;;;;;;;;;;;;;;;15.65;49.12;99681.03;4965182;28;1201;-40
2023/01/18 00:13:54;;;;;;;;;;;;;;;15.36;48.71;99663.59;4960815;28;1161;-41
2023/01/18 00:16:20;;;;;;;;;;;;;;;16.28;48.79;99670.84;4960986;28;1178;-44
2023/01/18 00:18:49;;;;;;;;;;;;;;;15.81;49.64;99662.47;4963953;28;1117;-44
2023/01/18 00:21:14;;;;;;;;;;;;;;;15.62;48.90;99679.69;4965933;28;1129;-43
2023/01/18 00:23:40;;;;;;;;;;;;;;;16.56;49.05;99672.59;4961025;28;1984;-41
2023/01/18 00:26:06;;;;;;;;;;;;;;;15.77;49.93;99684.16;4960666;28;1030;-42
2023/01/18 00:28:31;;;;;;;;;;;;;;;15.54;48.94;99685.81;4961381;28;1149;-46
2023/01/18 00:30:57;;;;;;;;;;;;;;;15.50;48.21;99679.28;4952361;28;1843;-44
2023/01/18 00:33:22;;;;;;;;;;;;;;;16.40;49.02;99680.25;4960655;28;1161;-40
2023/01/18 00:35:55;;;;;;;;;;;;;;;16.03;49.96;99683.84;4960813;28;1065;-43
2023/01/18 00:38:20;;;;;;;;;;;;;;;15.66;49.35;99672.53;4960884;28;1053;-41
2023/01/18 00:40:46;;;;;;;;;;;;;;;15.65;48.39;99673.63;4960458;28;1065;-45
2023/01/18 00:45:55;;;;;;;;;;;;;;;15.81;49.63;99673.44;4962241;28;1013;-41
2023/01/18 00:48:21;;;;;;;;;;;;;;;15.59;48.90;99677.56;4960662;28;990;-41
2023/01/18 00:50:46;;;;;;;;;;;;;;;15.43;48.26;99676.09;4960012;28;1148;-46
2023/01/18 00:53:12;;;;;;;;;;;;;;;16.84;48.68;99674.59;4960955;28;1026;-43
2023/01/18 00:55:37;;;;;;;;;;;;;;;15.89;49.76;99670.03;4963503;28;1077;-46
2023/01/18 00:58:02;;;;;;;;;;;;;;;15.57;49.29;99674.28;4953472;28;1125;-44
2023/01/18 01:00:28;;;;;;;;;;;;;;;16.51;48.95;99669.09;4965713;28;2427;-46
2023/01/18 01:02:53;;;;;;;;;;;;;;;15.77;49.77;99669.63;4960337;28;1034;-44
2023/01/18 01:08:06;;;;;;;;;;;;;;;16.22;49.05;99681.91;4970222;28;1228;-43
2023/01/18 01:10:32;;;;;;;;;;;;;;;16.25;49.49;99685.97;4963244;28;1110;-46
2023/01/18 01:26:37;;;;;;;;;;;;;;;16.06;49.53;99653.06;4959938;28;1268;-43
2023/01/18 01:29:02;;;;;;;;;;;;;;;15.59;49.38;99639.19;4960335;28;1192;-45
2023/01/18 01:31:28;;;;;;;;;;;;;;;15.50;48.61;99635.47;4971911;28;1864;-42
2023/01/18 01:33:53;;;;;;;;;;;;;;;16.64;48.55;99656.56;4966630;28;1193;-41
2023/01/18 01:36:19;;;;;;;;;;;;;;;15.78;49.47;99644.69;4959092;28;1085;-45
2023/01/18 01:38:45;;;;;;;;;;;;;;;15.44;49.03;99655.81;4959432;28;1053;-45
2023/01/18 01:41:25;;;;;;;;;;;;;;;15.44;48.43;99675.00;4959515;28;1074;-41
2023/01/18 01:44:01;;;;;;;;;;;;;;;15.50;48.35;99679.28;4964392;28;1994;-42
2023/01/18 01:46:33;;;;;;;;;;;;;;;16.00;49.26;99673.47;4959466;28;1125;-46
2023/01/18 01:49:07;;;;;;;;;;;;;;;15.59;49.22;99666.59;4959265;28;1196;-46
2023/01/18 01:51:34;;;;;;;;;;;;;;;15.50;49.09;99665.59;4959234;28;1130;-43
2023/01/18 01:54:00;;;;;;;;;;;;;;;16.40;49.09;99663.00;4942253;29;1174;-43
2023/01/18 01:56:26;;;;;;;;;;;;;;;15.68;49.67;99659.34;4969024;28;1057;-43
2023/01/18 01:58:52;;;;;;;;;;;;;;;15.48;48.74;99660.41;4960736;28;1208;-47
2023/01/18 02:01:17;;;;;;;;;;;;;;;15.45;47.91;99650.06;4960892;28;2607;-44
2023/01/18 02:03:43;;;;;;;;;;;;;;;16.20;48.59;99653.97;4958344;28;1906;-43
2023/01/18 02:06:12;;;;;;;;;;;;;;;15.56;49.36;99648.81;4959182;28;1105;-46
2023/01/18 02:08:38;;;;;;;;;;;;;;;15.93;49.12;99649.16;4947372;29;1150;-45
2023/01/18 02:11:03;;;;;;;;;;;;;;;15.94;49.65;99645.31;4943910;29;1181;-45
2023/01/18 02:13:29;;;;;;;;;;;;;;;15.60;49.34;99643.56;4959069;28;1162;-44
2023/01/18 02:15:54;;;;;;;;;;;;;;;15.44;48.52;99645.69;4958805;28;1093;-44
2023/01/18 02:18:20;;;;;;;;;;;;;;;15.46;48.75;99642.63;4958977;28;1125;-45
2023/01/18 02:20:54;;;;;;;;;;;;;;;16.08;49.07;99646.19;4969964;28;1181;-45
2023/01/18 02:23:33;;;;;;;;;;;;;;;15.57;49.15;99647.72;4946162;28;1918;-40
2023/01/18 02:25:59;;;;;;;;;;;;;;;15.99;49.24;99631.53;4958998;28;1113;-45
2023/01/18 02:28:37;;;;;;;;;;;;;;;15.91;49.70;99637.69;4958722;28;1073;-45
2023/01/18 02:31:18;;;;;;;;;;;;;;;15.60;49.01;99640.81;4968248;28;1797;-46
2023/01/18 02:33:46;;;;;;;;;;;;;;;16.72;48.46;99647.63;4958550;28;953;-43
2023/01/18 02:36:25;;;;;;;;;;;;;;;15.78;49.75;99635.63;4958258;28;1181;-43
2023/01/18 02:38:51;;;;;;;;;;;;;;;15.67;49.28;99637.69;4958315;28;1057;-42
2023/01/18 02:41:17;;;;;;;;;;;;;;;16.10;49.64;99637.66;4940960;29;1059;-47
2023/01/18 02:46:37;;;;;;;;;;;;;;;15.54;48.44;99636.50;4960107;28;1058;-44
2023/01/18 02:49:05;;;;;;;;;;;;;;;16.35;48.56;99633.69;4942820;28;1149;-43
2023/01/18 02:51:31;;;;;;;;;;;;;;;15.79;49.43;99638.09;4958489;28;1073;-44
2023/01/18 02:53:56;;;;;;;;;;;;;;;15.54;49.01;99636.50;4958412;28;1055;-42
2023/01/18 02:56:42;;;;;;;;;;;;;;;16.21;49.12;99649.28;4964330;28;1034;-45
2023/01/18 02:59:25;;;;;;;;;;;;;;;15.64;49.52;99641.88;4941488;28;1395;-46
2023/01/18 03:01:53;;;;;;;;;;;;;;;15.52;48.33;99644.22;4960659;28;2508;-41
2023/01/18 03:04:21;;;;;;;;;;;;;;;16.52;48.41;99646.03;4958279;28;1898;-42
2023/01/18 03:06:47;;;;;;;;;;;;;;;15.78;49.27;99635.63;4941157;28;1148;-41
2023/01/18 03:09:17;;;;;;;;;;;;;;;15.61;48.55;99628.72;4942989;29;885;-45
2023/01/18 03:11:48;;;;;;;;;;;;;;;16.07;49.44;99633.59;4941559;28;1014;-45
2023/01/18 03:14:26;;;;;;;;;;;;;;;15.61;49.15;99636.94;4957081;28;1007;-46
2023/01/18 03:16:57;;;;;;;;;;;;;;;15.46;48.34;99631.69;4970481;28;1251;-42
2023/01/18 03:25:15;;;;;;;;;;;;;;;15.50;48.58;99629.97;4943382;29;1907;-45
2023/01/18 03:35:52;;;;;;;;;;;;;;;15.25;48.37;99640.19;4943479;28;1142;-41
2023/01/18 03:38:17;;;;;;;;;;;;;;;15.30;47.66;99644.75;4940772;29;1062;-46
2023/01/18 03:40:43;;;;;;;;;;;;;;;15.98;48.29;99646.34;4957479;28;1026;-45
2023/01/18 03:43:15;;;;;;;;;;;;;;;15.95;48.94;99646.94;4940734;29;1038;-43
2023/01/18 03:45:44;;;;;;;;;;;;;;;15.47;49.19;99633.31;4967737;28;1907;-40
2023/01/18 03:48:09;;;;;;;;;;;;;;;15.44;48.13;99655.81;4957461;28;1045;-43
2023/01/18 03:50:41;;;;;;;;;;;;;;;16.25;48.31;99650.31;4940167;28;1122;-44
2023/01/18 03:53:08;;;;;;;;;;;;;;;15.71;49.12;99657.94;4957439;28;1158;-40
2023/01/18 03:55:54;;;;;;;;;;;;;;;15.54;48.87;99647.47;4940858;29;1228;-44
2023/01/18 03:58:21;;;;;;;;;;;;;;;16.18;49.28;99655.38;4962283;28;1801;-45
2023/01/18 04:00:46;;;;;;;;;;;;;;;15.73;48.93;99663.94;4960252;28;1793;-42
2023/01/18 04:03:12;;;;;;;;;;;;;;;15.52;48.54;99666.13;4940475;29;1094;-47
2023/01/18 04:05:37;;;;;;;;;;;;;;;16.31;48.53;99662.84;4957693;28;1906;-42
2023/01/18 04:08:03;;;;;;;;;;;;;;;15.67;49.12;99657.72;4940227;29;1073;-45
2023/01/18 04:10:28;;;;;;;;;;;;;;;15.43;48.61;99668.72;4965862;28;1034;-46
2023/01/18 04:12:53;;;;;;;;;;;;;;;15.35;47.91;99661.94;4957517;28;1397;-44
2023/01/18 04:15:19;;;;;;;;;;;;;;;16.22;48.22;99659.97;4957499;28;1200;-45
2023/01/18 04:17:45;;;;;;;;;;;;;;;15.60;48.95;99662.75;4957357;28;1193;-42
2023/01/18 04:20:10;;;;;;;;;;;;;;;15.35;48.42;99661.94;4956941;28;1085;-42
2023/01/18 04:22:35;;;;;;;;;;;;;;;16.20;48.85;99653.97;4963081;28;979;-45
2023/01/18 04:25:01;;;;;;;;;;;;;;;15.85;49.37;99652.56;4956881;28;1918;-42
2023/01/18 04:27:26;;;;;;;;;;;;;;;15.54;49.04;99663.91;4961010;28;1184;-44
2023/01/18 04:29:52;;;;;;;;;;;;;;;15.80;49.00;99649.91;4962506;28;2173;-43
2023/01/18 04:32:17;;;;;;;;;;;;;;;16.33;49.24;99657.06;4968068;28;1061;-44
2023/01/18 04:34:43;;;;;;;;;;;;;;;15.70;49.48;99645.34;4960640;28;988;-42
2023/01/18 04:37:08;;;;;;;;;;;;;;;15.53;48.68;99646.66;4960622;28;1122;-45
2023/01/18 04:39:33;;;;;;;;;;;;;;;15.40;48.25;99666.53;4960683;28;1165;-43
2023/01/18 04:41:59;;;;;;;;;;;;;;;16.55;48.67;99661.91;4960775;28;1049;-45
2023/01/18 04:44:24;;;;;;;;;;;;;;;15.78;49.23;99652.09;4960515;28;1902;-42
2023/01/18 04:46:50;;;;;;;;;;;;;;;15.47;48.67;99664.25;4968036;28;1032;-46
2023/01/18 04:49:16;;;;;;;;;;;;;;;15.38;48.31;99664.09;4960505;28;1106;-42
2023/01/18 04:51:42;;;;;;;;;;;;;;;15.30;47.41;99655.72;4960357;28;1117;-48
2023/01/18 04:54:08;;;;;;;;;;;;;;;16.07;48.44;99657.44;4959787;28;1070;-48
2023/01/18 04:56:33;;;;;;;;;;;;;;;15.73;49.46;99659.25;4942716;28;1370;-41
2023/01/18 04:58:58;;;;;;;;;;;;;;;15.89;49.45;99657.19;4961388;28;1100;-43
2023/01/18 05:01:24;;;;;;;;;;;;;;;17.01;48.32;99666.63;4963081;28;2556;-44
2023/01/18 05:03:51;;;;;;;;;;;;;;;15.93;50.02;99665.59;4960143;28;1986;-45
2023/01/18 05:06:18;;;;;;;;;;;;;;;15.61;49.33;99647.91;4960330;28;1261;-42
2023/01/18 05:08:44;;;;;;;;;;;;;;;16.39;49.62;99655.88;4960447;28;1062;-47
2023/01/18 05:11:10;;;;;;;;;;;;;;;16.28;49.72;99646.97;4964748;28;1114;-41
2023/01/18 05:13:36;;;;;;;;;;;;;;;15.83;49.45;99649.31;4959658;28;1144;-45
2023/01/18 05:16:02;;;;;;;;;;;;;;;15.67;48.57;99646.75;4959789;28;1169;-46
2023/01/18 05:18:27;;;;;;;;;;;;;;;15.92;49.21;99644.78;4960408;28;1002;-42
2023/01/18 05:20:53;;;;;;;;;;;;;;;16.03;49.48;99649.03;4960410;28;1114;-42
2023/01/18 05:23:18;;;;;;;;;;;;;;;15.66;49.16;99644.31;4960328;28;1140;-42
2023/01/18 05:25:44;;;;;;;;;;;;;;;17.04;48.48;99648.69;4959956;28;1910;-46
2023/01/18 05:28:09;;;;;;;;;;;;;;;15.98;49.76;99651.84;4959850;28;1101;-42
2023/01/18 05:30:39;;;;;;;;;;;;;;;15.69;49.13;99666.44;4967685;28;1749;-43
2023/01/18 05:33:04;;;;;;;;;;;;;;;15.65;48.46;99670.88;4961832;28;1124;-42
2023/01/18 05:35:30;;;;;;;;;;;;;;;16.07;48.87;99672.00;4966875;28;1120;-43
2023/01/18 05:37:55;;;;;;;;;;;;;;;15.82;49.46;99675.09;4958866;28;1033;-45
2023/01/18 05:40:21;;;;;;;;;;;;;;;15.86;49.42;99681.59;4959357;28;1081;-41
2023/01/18 05:42:46;;;;;;;;;;;;;;;16.83;48.96;99678.44;4959006;28;1096;-42
2023/01/18 05:45:12;;;;;;;;;;;;;;;16.01;49.48;99677.84;4958760;28;1969;-42
2023/01/18 05:47:37;;;;;;;;;;;;;;;15.74;49.08;99680.09;4959273;28;1045;-47
2023/01/18 05:50:03;;;;;;;;;;;;;;;15.96;49.11;99675.16;4958656;28;1034;-44
2023/01/18 05:52:28;;;;;;;;;;;;;;;16.29;49.78;99680.72;4958721;28;1074;-43
2023/01/18 05:54:53;;;;;;;;;;;;;;;15.87;49.56;99686.00;4958624;28;1237;-47
2023/01/18 05:57:19;;;;;;;;;;;;;;;15.71;48.55;99686.16;4958935;28;1315;-42
2023/01/18 05:59:44;;;;;;;;;;;;;;;15.54;47.89;99696.78;4959287;28;2216;-43
2023/01/18 06:02:10;;;;;;;;;;;;;;;16.36;48.55;99690.19;4958896;29;1304;-43
2023/01/18 06:04:35;;;;;;;;;;;;;;;15.93;49.59;99678.50;4959580;28;1918;-45
2023/01/18 06:07:01;;;;;;;;;;;;;;;15.66;48.86;99682.69;4959003;28;1066;-43
2023/01/18 06:09:28;;;;;;;;;;;;;;;15.64;48.23;99680.25;4960626;28;1150;-43
2023/01/18 06:11:54;;;;;;;;;;;;;;;16.40;48.79;99680.25;4958863;28;1054;-42
2023/01/18 06:14:19;;;;;;;;;;;;;;;15.86;48.98;99682.41;4958607;29;1300;-43
2023/01/18 06:16:45;;;;;;;;;;;;;;;15.58;48.57;99681.41;4959134;28;1078;-41
2023/01/18 06:19:10;;;;;;;;;;;;;;;16.37;48.79;99675.38;4958918;28;1183;-42
2023/01/18 06:21:36;;;;;;;;;;;;;;;16.57;48.45;99674.22;4961636;28;1141;-41
2023/01/18 06:24:01;;;;;;;;;;;;;;;16.37;49.04;99678.13;4960207;28;1973;-41
2023/01/18 06:26:29;;;;;;;;;;;;;;;15.97;50.08;99683.09;4958831;28;1145;-44
2023/01/18 06:28:54;;;;;;;;;;;;;;;15.81;50.56;99690.72;4958880;28;1034;-40
2023/01/18 06:31:20;;;;;;;;;;;;;;;15.69;51.07;99690.31;4959909;28;1869;-45
2023/01/18 06:33:45;;;;;;;;;;;;;;;17.09;47.72;99696.09;4962296;28;1181;-46
2023/01/18 06:36:11;;;;;;;;;;;;;;;16.51;49.11;99696.53;4965237;28;1089;-40
2023/01/18 06:38:36;;;;;;;;;;;;;;;16.00;50.68;99698.94;4958533;28;1197;-40
2023/01/18 06:41:01;;;;;;;;;;;;;;;15.83;51.40;99710.41;4958639;28;1113;-44
2023/01/18 06:43:28;;;;;;;;;;;;;;;15.63;51.91;99710.69;4958390;28;1075;-40
2023/01/18 06:45:56;;;;;;;;;;;;;;;17.05;48.65;99716.25;4962176;28;1975;-44
2023/01/18 06:48:22;;;;;;;;;;;;;;;16.70;49.24;99716.53;4966150;28;1157;-45
2023/01/18 06:50:48;;;;;;;;;;;;;;;16.11;51.10;99718.81;4941574;29;1149;-39
2023/01/18 06:53:14;;;;;;;;;;;;;;;15.89;51.63;99724.88;4958704;28;1134;-42
2023/01/18 06:55:39;;;;;;;;;;;;;;;15.86;51.88;99739.19;4958473;28;1197;-44
2023/01/18 06:58:05;;;;;;;;;;;;;;;17.41;47.81;99741.13;4962800;28;1145;-44
2023/01/18 07:00:30;;;;;;;;;;;;;;;16.51;50.04;99746.78;4962241;28;2386;-39
2023/01/18 07:02:57;;;;;;;;;;;;;;;16.04;51.37;99765.78;4958086;28;1061;-41
2023/01/18 07:05:22;;;;;;;;;;;;;;;15.85;51.86;99759.47;4975435;28;1907;-46
2023/01/18 07:07:47;;;;;;;;;;;;;;;15.71;52.42;99767.56;4977140;28;1013;-44
2023/01/18 07:10:13;;;;;;;;;;;;;;;17.16;48.96;99760.84;4961114;28;1076;-39
2023/01/18 07:12:38;;;;;;;;;;;;;;;16.68;50.06;99770.94;4963422;28;998;-42
2023/01/18 07:15:06;;;;;;;;;;;;;;;16.12;51.47;99774.47;4956871;28;1347;-40
2023/01/18 07:17:31;;;;;;;;;;;;;;;15.89;52.26;99766.00;4965494;28;1222;-46
2023/01/18 07:19:57;;;;;;;;;;;;;;;15.71;52.78;99767.56;4964085;28;1093;-43
2023/01/18 07:22:22;;;;;;;;;;;;;;;15.60;52.97;99766.03;4964255;28;1192;-43
2023/01/18 07:24:47;;;;;;;;;;;;;;;16.29;51.41;99760.28;4974882;28;1967;-43
2023/01/18 07:27:13;;;;;;;;;;;;;;;17.42;48.52;99775.72;4977606;28;1064;-44
2023/01/18 07:29:38;;;;;;;;;;;;;;;16.41;50.87;99777.91;4976763;28;1831;-44
2023/01/18 07:32:04;;;;;;;;;;;;;;;16.01;52.03;99782.03;4968495;28;1169;-42
2023/01/18 07:34:29;;;;;;;;;;;;;;;15.78;52.58;99784.50;4976089;28;1183;-43
2023/01/18 07:36:55;;;;;;;;;;;;;;;16.21;51.76;99781.75;4976897;28;1080;-42
2023/01/18 07:39:20;;;;;;;;;;;;;;;17.40;48.59;99780.72;4963916;28;1122;-44
2023/01/18 07:41:45;;;;;;;;;;;;;;;16.43;51.24;99766.66;4976883;28;1041;-40
2023/01/18 07:44:12;;;;;;;;;;;;;;;16.03;52.39;99771.56;4973966;28;1906;-42
2023/01/18 07:46:38;;;;;;;;;;;;;;;15.80;52.81;99760.34;4966912;28;1070;-42
2023/01/18 07:49:04;;;;;;;;;;;;;;;15.70;53.26;99766.75;4965656;28;1109;-43
2023/01/18 07:51:30;;;;;;;;;;;;;;;17.08;50.08;99776.06;4957572;28;1347;-41
2023/01/18 07:53:56;;;;;;;;;;;;;;;16.92;50.26;99789.25;4968954;28;1201;-40
2023/01/18 07:56:24;;;;;;;;;;;;;;;16.29;52.47;99793.19;4976328;28;1017;-44
2023/01/18 07:58:49;;;;;;;;;;;;;;;16.07;52.87;99791.81;4965453;28;1106;-41
2023/01/18 08:01:15;;;;;;;;;;;;;;;17.38;49.75;99793.94;4968009;28;1975;-44
2023/01/18 08:03:41;;;;;;;;;;;;;;;16.70;51.73;99790.66;4969745;28;1902;-45
2023/01/18 08:06:06;;;;;;;;;;;;;;;16.20;52.80;99801.25;4979665;28;1169;-41
2023/01/18 08:08:32;;;;;;;;;;;;;;;16.02;53.51;99806.44;4980781;28;997;-41
2023/01/18 08:10:58;;;;;;;;;;;;;;;15.88;53.75;99794.53;4971424;28;1088;-40
2023/01/18 08:13:24;;;;;;;;;;;;;;;15.70;54.18;99804.31;4963038;28;1327;-43
2023/01/18 08:15:50;;;;;;;;;;;;;;;15.76;53.96;99791.38;4960464;29;1295;-43
2023/01/18 08:18:15;;;;;;;;;;;;;;;17.30;50.26;99791.88;4961056;28;1308;-42
2023/01/18 08:20:44;;;;;;;;;;;;;;;16.52;52.16;99783.25;4970859;28;1046;-43
2023/01/18 08:23:09;;;;;;;;;;;;;;;16.14;53.42;99796.94;4976365;28;1018;-40
2023/01/18 08:25:35;;;;;;;;;;;;;;;15.87;53.99;99801.13;4971227;28;1985;-44
2023/01/18 08:28:00;;;;;;;;;;;;;;;15.75;54.28;99798.75;4980331;28;998;-44
2023/01/18 08:30:27;;;;;;;;;;;;;;;15.68;54.42;99793.66;4969722;28;1936;-47
2023/01/18 08:32:56;;;;;;;;;;;;;;;16.74;52.34;99799.13;4961325;28;1223;-45
2023/01/18 08:35:22;;;;;;;;;;;;;;;17.19;50.90;99793.19;4960536;28;1373;-44
2023/01/18 08:37:47;;;;;;;;;;;;;;;16.41;53.02;99791.63;4962534;28;1118;-40
2023/01/18 08:40:13;;;;;;;;;;;;;;;16.13;53.86;99800.78;4965131;28;1259;-42
2023/01/18 08:42:38;;;;;;;;;;;;;;;16.61;52.71;99800.69;4980313;28;1058;-40
2023/01/18 08:45:04;;;;;;;;;;;;;;;17.32;50.76;99797.06;4971284;28;1983;-43
2023/01/18 08:47:29;;;;;;;;;;;;;;;16.48;52.96;99793.19;4960052;28;1288;-44
2023/01/18 08:49:55;;;;;;;;;;;;;;;16.15;54.02;99804.88;4973288;28;1122;-44
2023/01/18 08:52:20;;;;;;;;;;;;;;;16.02;53.88;99803.69;4973161;28;1014;-44
2023/01/18 08:54:47;;;;;;;;;;;;;;;16.07;54.25;99806.38;4961614;28;1300;-40
2023/01/18 08:57:12;;;;;;;;;;;;;;;17.48;50.70;99805.88;4957681;28;1493;-40
2023/01/18 08:59:37;;;;;;;;;;;;;;;16.58;52.89;99796.59;4965699;28;1913;-42
2023/01/18 09:02:03;;;;;;;;;;;;;;;16.17;54.06;99796.34;4970609;28;1007;-41
2023/01/18 09:04:28;;;;;;;;;;;;;;;17.11;51.79;99800.22;4959169;28;1915;-41
2023/01/18 09:06:54;;;;;;;;;;;;;;;16.84;52.10;99781.66;4961062;28;1071;-42
2023/01/18 09:09:19;;;;;;;;;;;;;;;16.36;53.62;99799.13;4961891;28;1248;-46
2023/01/18 09:11:45;;;;;;;;;;;;;;;16.13;53.90;99779.69;4967745;28;1049;-42
2023/01/18 09:14:10;;;;;;;;;;;;;;;17.27;51.28;99778.75;4962402;28;1003;-43
2023/01/18 09:16:36;;;;;;;;;;;;;;;16.81;52.45;99768.53;4979334;28;1027;-43
2023/01/18 09:19:05;;;;;;;;;;;;;;;16.36;53.35;99767.00;4977612;28;1146;-43
2023/01/18 09:21:30;;;;;;;;;;;;;;;16.17;53.77;99766.19;4962891;28;1682;-43
2023/01/18 09:23:56;;;;;;;;;;;;;;;16.06;54.20;99757.28;4967152;28;1991;-41
2023/01/18 09:26:21;;;;;;;;;;;;;;;15.97;54.27;99757.13;4975860;28;1002;-40
2023/01/18 09:28:47;;;;;;;;;;;;;;;17.37;51.17;99756.59;4969569;28;1146;-43
2023/01/18 09:31:12;;;;;;;;;;;;;;;16.86;52.37;99749.25;4966327;28;1070;-44
2023/01/18 09:33:38;;;;;;;;;;;;;;;16.33;53.78;99756.63;4969522;28;1033;-42
2023/01/18 09:36:04;;;;;;;;;;;;;;;16.16;54.19;99753.56;4958677;28;1216;-44
2023/01/18 09:38:30;;;;;;;;;;;;;;;15.98;54.47;99761.50;4965215;28;1272;-44
2023/01/18 09:40:55;;;;;;;;;;;;;;;16.42;53.65;99770.50;4966105;28;835;-47
2023/01/18 09:43:26;;;;;;;;;;;;;;;17.43;50.86;99780.13;4960830;28;1224;-41
2023/01/18 09:45:52;;;;;;;;;;;;;;;16.50;53.40;99780.00;4965059;28;1987;-40
2023/01/18 09:48:38;;;;;;;;;;;;;;;16.25;54.06;99777.31;4971713;28;1019;-45
2023/01/18 09:51:06;;;;;;;;;;;;;;;16.05;54.41;99778.41;4962097;28;1689;-46
2023/01/18 09:53:49;;;;;;;;;;;;;;;17.10;51.99;99773.84;4971864;28;1004;-42
2023/01/18 09:56:20;;;;;;;;;;;;;;;16.67;53.21;99765.75;4970520;28;880;-42
2023/01/18 09:59:02;;;;;;;;;;;;;;;16.28;53.97;99772.34;4959108;28;1384;-41
2023/01/18 10:01:29;;;;;;;;;;;;;;;17.05;52.28;99779.41;4943820;28;1124;-42
2023/01/18 10:04:07;;;;;;;;;;;;;;;17.03;51.96;99774.22;4973274;28;1977;-42
2023/01/18 10:06:42;;;;;;;;;;;;;;;16.43;53.64;99766.66;4940639;29;1344;-41
2023/01/18 10:09:11;;;;;;;;;;;;;;;16.22;53.98;99782.59;4973689;28;1260;-41
2023/01/18 10:12:03;;;;;;;;;;;;;;;16.03;54.51;99775.16;4977602;28;965;-44
2023/01/18 10:14:48;;;;;;;;;;;;;;;17.43;51.24;99782.03;4956715;28;1109;-44
2023/01/18 10:17:19;;;;;;;;;;;;;;;16.50;53.46;99766.28;4933970;29;1156;-44
2023/01/18 10:19:45;;;;;;;;;;;;;;;16.19;54.32;99785.94;4941643;29;1193;-41
2023/01/18 10:22:29;;;;;;;;;;;;;;;16.01;54.83;99780.09;4958629;28;1270;-41
2023/01/18 10:25:18;;;;;;;;;;;;;;;15.90;54.69;99768.44;4967749;28;1922;-43
2023/01/18 10:27:50;;;;;;;;;;;;;;;17.44;51.43;99761.69;4953303;28;1203;-44
2023/01/18 10:30:36;;;;;;;;;;;;;;;16.65;53.39;99774.28;4963832;28;1831;-47
2023/01/18 10:33:02;;;;;;;;;;;;;;;16.22;54.37;99760.63;4942509;29;998;-44
2023/01/18 10:35:35;;;;;;;;;;;;;;;16.27;54.70;99771.56;4943625;28;1301;-48
2023/01/18 10:38:02;;;;;;;;;;;;;;;17.23;51.81;99778.53;4973644;28;1144;-47
2023/01/18 10:40:27;;;;;;;;;;;;;;;16.45;54.12;99767.16;4958564;28;1038;-42
2023/01/18 10:42:58;;;;;;;;;;;;;;;16.17;54.46;99768.94;4957708;29;1176;-40
2023/01/18 10:45:24;;;;;;;;;;;;;;;16.53;53.81;99776.66;4958395;29;1907;-42
2023/01/18 10:47:51;;;;;;;;;;;;;;;17.26;51.62;99771.63;4958218;28;1358;-47
2023/01/18 10:50:33;;;;;;;;;;;;;;;16.48;53.73;99773.97;4975368;28;1148;-44
2023/01/18 10:53:11;;;;;;;;;;;;;;;16.14;54.64;99789.53;4978187;28;1037;-44
2023/01/18 10:55:37;;;;;;;;;;;;;;;16.11;54.91;99794.81;4992532;28;1149;-46
2023/01/18 10:58:02;;;;;;;;;;;;;;;17.52;51.32;99798.66;4975884;28;1126;-42
2023/01/18 11:00:31;;;;;;;;;;;;;;;16.62;53.62;99813.31;4959432;28;1825;-43
2023/01/18 11:02:56;;;;;;;;;;;;;;;16.25;54.35;99814.91;4973258;28;1070;-40
2023/01/18 11:05:32;;;;;;;;;;;;;;;16.02;54.94;99816.56;4992313;28;1902;-42
2023/01/18 11:08:09;;;;;;;;;;;;;;;17.44;51.59;99811.97;4964759;28;1090;-45
2023/01/18 11:10:36;;;;;;;;;;;;;;;16.64;53.76;99816.56;4967408;28;1088;-42
2023/01/18 11:13:01;;;;;;;;;;;;;;;16.27;54.36;99815.44;4962886;28;1145;-42
2023/01/18 11:15:27;;;;;;;;;;;;;;;16.07;54.87;99817.34;4992585;28;1009;-45
2023/01/18 11:17:56;;;;;;;;;;;;;;;16.06;55.00;99814.88;4972300;28;1048;-44
2023/01/18 11:20:33;;;;;;;;;;;;;;;17.51;51.59;99816.25;4969943;28;1030;-43
2023/01/18 11:22:59;;;;;;;;;;;;;;;16.56;53.68;99787.03;4987621;28;1043;-44
2023/01/18 11:25:25;;;;;;;;;;;;;;;16.21;54.92;99819.34;4967647;28;1914;-41
2023/01/18 11:27:50;;;;;;;;;;;;;;;16.08;55.08;99805.22;4971054;28;1114;-42
2023/01/18 11:30:22;;;;;;;;;;;;;;;16.47;54.55;99816.28;4961860;28;1722;-42
2023/01/18 11:32:48;;;;;;;;;;;;;;;17.23;52.21;99817.00;4957047;28;1047;-43
2023/01/18 11:35:20;;;;;;;;;;;;;;;16.47;54.50;99813.53;4983093;28;1041;-42
2023/01/18 11:37:47;;;;;;;;;;;;;;;16.16;54.87;99806.53;4942386;29;1035;-42
2023/01/18 11:40:25;;;;;;;;;;;;;;;15.96;55.46;99804.84;4961528;28;1280;-42
2023/01/18 11:42:52;;;;;;;;;;;;;;;16.12;55.12;99800.00;4961217;29;1355;-40
2023/01/18 11:45:34;;;;;;;;;;;;;;;17.39;52.05;99794.75;4975612;28;1975;-45
2023/01/18 11:48:04;;;;;;;;;;;;;;;16.50;54.21;99783.56;4975549;28;1272;-43
2023/01/18 11:50:52;;;;;;;;;;;;;;;16.15;54.99;99787.63;4974933;28;1204;-43
2023/01/18 11:53:21;;;;;;;;;;;;;;;15.96;55.35;99763.72;4969167;28;1272;-40
2023/01/18 11:55:54;;;;;;;;;;;;;;;15.90;55.53;99770.38;4968227;28;1149;-43
2023/01/18 11:58:29;;;;;;;;;;;;;;;17.47;52.34;99763.00;4995152;28;1092;-43
2023/01/18 12:01:01;;;;;;;;;;;;;;;16.63;54.15;99762.75;4959070;28;2052;-40
2023/01/18 12:03:36;;;;;;;;;;;;;;;16.20;55.27;99757.38;4995580;28;1155;-41
2023/01/18 12:06:05;;;;;;;;;;;;;;;15.98;55.60;99749.72;4971703;28;1914;-40
2023/01/18 12:08:57;;;;;;;;;;;;;;;16.92;53.78;99759.03;4956708;28;1055;-45
2023/01/18 12:11:35;;;;;;;;;;;;;;;16.97;53.39;99749.91;4963712;28;1304;-39
2023/01/18 12:14:02;;;;;;;;;;;;;;;16.38;54.82;99744.75;4973912;28;867;-39
2023/01/18 12:16:31;;;;;;;;;;;;;;;16.10;55.67;99755.56;4982201;28;1125;-45
2023/01/18 12:19:15;;;;;;;;;;;;;;;15.91;55.74;99758.31;4980281;28;1159;-43
2023/01/18 12:21:47;;;;;;;;;;;;;;;16.67;54.63;99769.28;4960697;29;1075;-44
2023/01/18 12:24:16;;;;;;;;;;;;;;;17.09;53.33;99755.72;4961797;28;1910;-42
2023/01/18 12:26:45;;;;;;;;;;;;;;;16.34;55.33;99750.03;4958476;29;1166;-40
2023/01/18 12:29:29;;;;;;;;;;;;;;;16.13;55.58;99771.47;4961297;29;1225;-43
2023/01/18 12:31:56;;;;;;;;;;;;;;;15.95;55.68;99770.31;4960288;29;1797;-46
2023/01/18 12:34:22;;;;;;;;;;;;;;;16.16;55.78;99778.25;4961089;28;1213;-43
2023/01/18 12:37:06;;;;;;;;;;;;;;;17.26;53.34;99774.38;4960484;28;1206;-39
2023/01/18 12:39:34;;;;;;;;;;;;;;;16.41;55.25;99775.19;4973565;28;1117;-41
2023/01/18 12:42:02;;;;;;;;;;;;;;;16.12;55.76;99777.22;4961748;28;1180;-43
2023/01/18 12:44:47;;;;;;;;;;;;;;;15.97;56.03;99786.47;4960929;28;1899;-40
2023/01/18 12:47:16;;;;;;;;;;;;;;;17.20;53.67;99786.59;4971991;28;1093;-39
2023/01/18 12:49:43;;;;;;;;;;;;;;;16.92;54.16;99795.53;4974365;28;1069;-40
2023/01/18 12:52:09;;;;;;;;;;;;;;;16.37;55.34;99812.53;4981670;28;1014;-42
2023/01/18 12:54:35;;;;;;;;;;;;;;;16.12;55.92;99810.13;4960711;29;1122;-40
2023/01/18 12:57:01;;;;;;;;;;;;;;;15.98;55.85;99821.81;4960430;28;1173;-42
2023/01/18 12:59:27;;;;;;;;;;;;;;;17.30;53.45;99824.06;4959756;29;1256;-44
2023/01/18 13:02:13;;;;;;;;;;;;;;;16.66;54.82;99830.81;4942558;29;2061;-42
2023/01/18 13:04:41;;;;;;;;;;;;;;;16.23;55.77;99825.38;4957016;29;1981;-41
2023/01/18 13:07:09;;;;;;;;;;;;;;;16.04;56.02;99831.63;4959937;29;1295;-45
2023/01/18 13:09:36;;;;;;;;;;;;;;;17.45;53.06;99832.03;4945126;28;1327;-45
2023/01/18 13:12:02;;;;;;;;;;;;;;;16.66;54.92;99829.97;4960009;29;1323;-43
2023/01/18 13:14:32;;;;;;;;;;;;;;;16.29;55.69;99832.41;4974507;28;1386;-44
2023/01/18 13:17:09;;;;;;;;;;;;;;;16.08;55.91;99827.19;4974700;28;1457;-45
2023/01/18 13:19:58;;;;;;;;;;;;;;;16.11;56.29;99822.22;4973978;28;1347;-46
2023/01/18 13:22:51;;;;;;;;;;;;;;;17.23;53.48;99817.00;4959779;29;1272;-44
2023/01/18 13:25:31;;;;;;;;;;;;;;;16.42;55.43;99814.41;4937271;28;1902;-49
2023/01/18 13:28:15;;;;;;;;;;;;;;;16.11;56.16;99820.28;4973281;28;1237;-44
2023/01/18 13:30:51;;;;;;;;;;;;;;;15.96;55.94;99821.28;4959027;29;1841;-45
2023/01/18 13:33:19;;;;;;;;;;;;;;;17.39;53.53;99809.31;4960158;29;1252;-47
2023/01/18 13:35:49;;;;;;;;;;;;;;;16.75;54.77;99817.22;4963502;28;1443;-41
2023/01/18 13:38:18;;;;;;;;;;;;;;;16.24;56.09;99825.06;4993293;28;882;-42
2023/01/18 13:40:52;;;;;;;;;;;;;;;16.09;56.00;99817.03;4988905;28;1025;-40